createdAt,value
2023-04-15T00:02:08.810Z,1
2023-04-15T00:14:08.913Z,1
2023-04-15T00:26:08.879Z,1
2023-04-15T00:38:08.845Z,1
2023-04-15T00:50:08.791Z,1
2023-04-15T01:02:08.976Z,1
2023-04-15T01:14:08.957Z,1
2023-04-15T01:26:08.835Z,1
2023-04-15T01:38:08.845Z,1
2023-04-15T01:50:08.957Z,1
2023-04-15T02:02:08.939Z,1
2023-04-15T02:14:08.868Z,1
2023-04-15T02:26:09.067Z,1
2023-04-15T02:38:09.013Z,1
2023-04-15T02:50:09.436Z,1
2023-04-15T03:02:08.929Z,1
2023-04-15T03:14:09.096Z,1
2023-04-15T03:26:09.023Z,1
2023-04-15T03:38:09.028Z,1
2023-04-15T03:50:08.932Z,1
2023-04-15T04:02:09.149Z,1
2023-04-15T04:14:09.053Z,1
2023-04-15T04:26:09.088Z,1
2023-04-15T04:38:09.044Z,1
2023-04-15T04:50:09.196Z,7
2023-04-15T05:02:09.158Z,22
2023-04-15T05:14:09.137Z,46
2023-04-15T05:26:09.034Z,67
2023-04-15T05:38:09.616Z,83
2023-04-15T05:50:09.137Z,88
2023-04-15T06:02:09.158Z,91
2023-04-15T06:14:09.292Z,91
2023-04-15T06:26:09.253Z,98
2023-04-15T06:38:09.176Z,98
2023-04-15T06:50:09.158Z,98
2023-04-15T07:02:09.323Z,98
2023-04-15T07:14:09.292Z,98
2023-04-15T07:26:09.203Z,98
2023-04-15T07:38:09.179Z,98
2023-04-15T07:50:09.317Z,98
2023-04-15T08:02:09.339Z,98
2023-04-15T08:14:09.940Z,98
2023-04-15T08:26:09.429Z,97
2023-04-15T08:38:09.381Z,97
2023-04-15T08:50:09.386Z,97
2023-04-15T09:02:09.335Z,97
2023-04-15T09:14:09.573Z,97
2023-04-15T09:26:09.382Z,97
2023-04-15T09:38:09.375Z,97
2023-04-15T09:50:09.351Z,97
2023-04-15T10:02:09.597Z,96
2023-04-15T10:14:09.421Z,95
2023-04-15T10:26:09.410Z,96
2023-04-15T10:38:09.536Z,96
2023-04-15T10:50:09.551Z,96
2023-04-15T11:02:09.476Z,96
2023-04-15T11:14:09.410Z,96
2023-04-15T11:26:09.735Z,96
2023-04-15T11:38:09.546Z,96
2023-04-15T11:50:09.494Z,96
2023-04-15T12:02:09.498Z,96
2023-04-15T12:14:09.624Z,96
2023-04-15T12:26:09.575Z,96
2023-04-15T12:38:09.490Z,96
2023-04-15T12:50:09.528Z,96
2023-04-15T13:02:09.676Z,96
2023-04-15T13:14:09.595Z,97
2023-04-15T13:26:09.532Z,97
2023-04-15T13:38:09.719Z,97
2023-04-15T13:50:09.681Z,96
2023-04-15T14:02:09.628Z,95
2023-04-15T14:14:09.734Z,95
2023-04-15T14:26:09.729Z,95
2023-04-15T14:38:09.678Z,95
2023-04-15T14:50:09.740Z,96
2023-04-15T15:02:09.911Z,96
2023-04-15T15:14:09.829Z,96
2023-04-15T15:26:09.759Z,96
2023-04-15T15:38:09.728Z,96
2023-04-15T15:50:09.683Z,96
2023-04-15T16:02:09.866Z,96
2023-04-15T16:14:10.083Z,95
2023-04-15T16:26:10.052Z,95
2023-04-15T16:38:09.862Z,94
2023-04-15T16:50:09.920Z,93
2023-04-15T17:02:09.881Z,93
2023-04-15T17:14:09.784Z,92
2023-04-15T17:26:09.990Z,92
2023-04-15T17:38:09.914Z,92
2023-04-15T17:50:09.882Z,91
2023-04-15T18:02:09.864Z,91
2023-04-15T18:14:11.223Z,90
2023-04-15T18:26:09.933Z,86
2023-04-15T18:38:09.896Z,79
2023-04-15T18:50:09.910Z,69
2023-04-15T19:02:10.043Z,59
2023-04-15T19:14:09.992Z,38
2023-04-15T19:26:09.920Z,18
2023-04-15T19:38:09.916Z,4
2023-04-15T19:50:10.087Z,1
2023-04-15T20:02:10.098Z,1
2023-04-15T20:14:09.972Z,1
2023-04-15T20:26:10.147Z,1
2023-04-15T20:38:10.085Z,1
2023-04-15T20:50:10.695Z,1
2023-04-15T21:02:10.087Z,1
2023-04-15T21:14:10.181Z,1
2023-04-15T21:26:10.128Z,1
2023-04-15T21:38:10.070Z,1
2023-04-15T21:50:10.244Z,1
2023-04-15T22:02:10.300Z,1
2023-04-15T22:14:10.097Z,1
2023-04-15T22:26:10.110Z,1
2023-04-15T22:38:10.224Z,1
2023-04-15T22:50:10.218Z,1
2023-04-15T23:02:10.245Z,1
2023-04-15T23:14:10.113Z,1
2023-04-15T23:26:10.126Z,1
2023-04-15T23:38:10.297Z,1
2023-04-15T23:50:10.243Z,1
